Time;durP1;ratioP1;P1;durP2;ratioP2;P2;SDS_P1;SDS_P2;PMS_P1;PMS_P2;Temp;Humidity;BMP_temperature;BMP_pressure;BME280_temperature;BME280_humidity;BME280_pressure;Samples;Min_cycle;Max_cycle;Signal;HPM_P1;HPM_P2
2021/04/04 00:01:53;;;;;;;15.63;4.30;;;7.50;99.90;;;;;;4158671;28;20044;-68
2021/04/04 00:03:54;;;;;;;13.90;4.35;;;7.50;99.90;;;;;;4152621;28;20030;-68
2021/04/04 00:05:54;;;;;;;14.50;4.03;;;7.40;99.90;;;;;;4172777;28;20031;-68
2021/04/04 00:07:55;;;;;;;15.25;4.03;;;7.40;99.90;;;;;;4158845;28;20067;-68
2021/04/04 00:09:56;;;;;;;16.67;4.35;;;7.40;99.90;;;;;;4159039;28;20045;-68
2021/04/04 00:11:56;;;;;;;19.27;5.03;;;7.30;99.90;;;;;;4159333;28;20038;-68
2021/04/04 00:13:57;;;;;;;22.90;5.15;;;7.30;99.90;;;;;;4157294;28;20033;-68
2021/04/04 00:15:57;;;;;;;14.93;4.75;;;7.20;99.90;;;;;;4159285;28;20034;-68
2021/04/04 00:17:58;;;;;;;8.70;3.50;;;7.10;99.90;;;;;;4158259;28;20041;-69
2021/04/04 00:19:59;;;;;;;14.93;3.75;;;7.10;99.90;;;;;;4158636;28;20037;-69
2021/04/04 00:21:59;;;;;;;8.98;3.35;;;7.10;99.90;;;;;;4173705;28;20079;-69
2021/04/04 00:24:02;;;;;;;14.90;3.72;;;7.00;99.90;;;;;;4160962;28;20025;-69
2021/04/04 00:26:03;;;;;;;20.25;4.90;;;7.00;99.90;;;;;;4175609;28;20021;-69
2021/04/04 00:28:05;;;;;;;19.63;4.28;;;7.00;99.90;;;;;;4162347;28;20108;-68
2021/04/04 00:30:10;;;;;;;20.27;4.25;;;6.90;99.90;;;;;;4167347;28;20043;-68
2021/04/04 00:32:11;;;;;;;12.38;3.92;;;7.00;99.90;;;;;;4149426;28;20508;-68
2021/04/04 00:34:11;;;;;;;12.10;3.78;;;6.90;99.90;;;;;;4156599;28;20034;-68
2021/04/04 00:36:12;;;;;;;8.77;3.20;;;6.90;99.90;;;;;;4156854;28;20044;-68
2021/04/04 00:38:13;;;;;;;14.75;3.55;;;7.00;99.90;;;;;;4153966;28;20025;-69
2021/04/04 00:40:17;;;;;;;9.35;3.13;;;7.00;99.90;;;;;;4157665;28;20037;-68
2021/04/04 00:42:18;;;;;;;9.60;3.50;;;7.00;99.90;;;;;;4173968;28;20089;-69
2021/04/04 00:44:18;;;;;;;11.18;3.45;;;7.10;99.90;;;;;;4162936;28;20032;-68
2021/04/04 00:46:19;;;;;;;23.33;4.43;;;7.10;99.90;;;;;;4175971;28;20159;-68
2021/04/04 00:48:20;;;;;;;10.95;3.78;;;7.10;99.90;;;;;;4161995;28;20025;-69
2021/04/04 00:50:24;;;;;;;8.45;3.30;;;7.10;99.90;;;;;;4156495;28;20029;-69
2021/04/04 00:52:25;;;;;;;9.45;2.92;;;7.10;99.90;;;;;;4167740;28;20034;-69
2021/04/04 00:54:26;;;;;;;10.93;3.17;;;7.10;99.90;;;;;;4156975;28;20028;-68
2021/04/04 00:56:27;;;;;;;10.73;3.42;;;7.10;99.90;;;;;;4156813;28;20038;-69
2021/04/04 00:58:28;;;;;;;12.32;4.13;;;7.10;99.90;;;;;;4173371;28;20041;-69
2021/04/04 01:00:31;;;;;;;11.95;3.33;;;7.10;99.90;;;;;;4173562;28;20063;-68
2021/04/04 01:02:32;;;;;;;11.98;3.97;;;7.10;99.90;;;;;;4166588;28;20049;-69
2021/04/04 01:04:33;;;;;;;8.82;3.65;;;7.10;99.90;;;;;;4146957;28;20393;-68
2021/04/04 01:06:33;;;;;;;8.77;3.35;;;7.20;99.90;;;;;;4166116;28;20547;-68
2021/04/04 01:08:37;;;;;;;15.57;3.78;;;7.20;99.90;;;;;;4159626;28;20036;-69
2021/04/04 01:10:41;;;;;;;7.70;3.70;;;7.20;99.90;;;;;;4158976;28;20037;-69
2021/04/04 01:12:54;;;;;;;11.70;3.92;;;7.30;99.90;;;;;;4159284;28;20048;-68
2021/04/04 01:15:06;;;;;;;12.10;3.47;;;7.20;99.90;;;;;;4167788;28;20415;-69
2021/04/04 01:17:07;;;;;;;8.20;2.92;;;7.30;99.90;;;;;;4171528;28;20023;-68
2021/04/04 01:19:26;;;;;;;10.43;3.85;;;7.30;99.90;;;;;;4190377;28;20492;-69
2021/04/04 01:21:35;;;;;;;20.58;5.05;;;7.30;99.90;;;;;;4157109;28;20044;-68
2021/04/04 01:23:58;;;;;;;21.23;4.53;;;7.30;99.90;;;;;;4157177;28;20044;-68
2021/04/04 01:25:58;;;;;;;14.52;4.30;;;7.30;99.90;;;;;;4160556;28;20042;-68
2021/04/04 01:28:06;;;;;;;15.07;4.25;;;7.30;99.90;;;;;;4171096;28;20106;-69
2021/04/04 01:30:08;;;;;;;16.13;4.63;;;7.30;99.90;;;;;;4162077;28;20388;-69
2021/04/04 01:32:10;;;;;;;11.60;3.92;;;7.30;99.90;;;;;;4163572;28;20137;-69
2021/04/04 01:34:13;;;;;;;9.13;3.35;;;7.30;99.90;;;;;;4158283;28;20047;-68
2021/04/04 01:36:16;;;;;;;13.13;4.10;;;7.30;99.90;;;;;;4160675;28;20047;-69
2021/04/04 01:38:22;;;;;;;17.30;4.78;;;7.30;99.90;;;;;;4186580;28;20029;-69
2021/04/04 01:40:24;;;;;;;13.38;4.18;;;7.30;99.90;;;;;;4160659;28;20476;-68
2021/04/04 01:42:25;;;;;;;14.45;4.00;;;7.30;99.90;;;;;;4181853;28;20456;-69
2021/04/04 01:44:27;;;;;;;12.38;4.00;;;7.30;99.90;;;;;;4160812;28;20046;-69
2021/04/04 01:46:29;;;;;;;14.32;4.72;;;7.20;99.90;;;;;;4175363;28;20048;-68
2021/04/04 01:48:31;;;;;;;14.52;3.95;;;7.20;99.90;;;;;;4160536;28;20034;-69
2021/04/04 01:50:32;;;;;;;15.23;4.15;;;7.20;99.90;;;;;;4161201;28;20074;-68
2021/04/04 01:52:34;;;;;;;12.55;3.95;;;7.20;99.90;;;;;;4158508;28;20037;-68
2021/04/04 01:54:35;;;;;;;20.35;4.93;;;7.20;99.90;;;;;;4160239;28;20037;-68
2021/04/04 01:56:36;;;;;;;16.90;3.85;;;7.20;99.90;;;;;;4160783;28;20068;-68
2021/04/04 01:58:38;;;;;;;14.02;4.18;;;7.20;99.90;;;;;;4160941;28;20647;-68
2021/04/04 02:00:40;;;;;;;9.50;3.05;;;7.20;99.90;;;;;;4160995;28;20033;-69
2021/04/04 02:02:44;;;;;;;14.68;4.78;;;7.20;99.90;;;;;;4160149;28;20030;-69
2021/04/04 02:04:45;;;;;;;11.30;3.63;;;7.20;99.90;;;;;;4182003;28;20036;-69
2021/04/04 02:06:46;;;;;;;13.88;3.97;;;7.20;99.90;;;;;;4142039;28;20612;-68
2021/04/04 02:08:47;;;;;;;14.82;3.90;;;7.20;99.90;;;;;;4157307;28;20769;-69
2021/04/04 02:10:48;;;;;;;15.73;4.10;;;7.20;99.90;;;;;;4157409;28;20112;-69
2021/04/04 02:12:51;;;;;;;10.27;3.45;;;7.20;99.90;;;;;;4160907;28;20034;-68
2021/04/04 02:14:52;;;;;;;13.05;3.92;;;7.20;99.90;;;;;;4160076;28;20113;-68
2021/04/04 02:16:56;;;;;;;15.63;3.97;;;7.30;99.90;;;;;;4159422;28;20409;-68
2021/04/04 02:18:57;;;;;;;10.00;3.58;;;7.30;99.90;;;;;;4159442;28;20049;-69
2021/04/04 02:20:59;;;;;;;17.20;4.53;;;7.30;99.90;;;;;;4160132;28;20386;-69
2021/04/04 02:23:03;;;;;;;13.55;4.53;;;7.30;99.90;;;;;;4158497;28;20041;-68
2021/04/04 02:25:06;;;;;;;17.85;4.07;;;7.30;99.90;;;;;;4160296;28;20060;-69
2021/04/04 02:27:07;;;;;;;17.02;3.92;;;7.30;99.90;;;;;;4178855;28;20063;-68
2021/04/04 02:29:07;;;;;;;9.70;4.13;;;7.30;99.90;;;;;;4157678;28;20060;-68
2021/04/04 02:31:13;;;;;;;22.30;4.25;;;7.30;99.90;;;;;;4160432;28;20064;-68
2021/04/04 02:33:32;;;;;;;13.85;5.32;;;7.30;99.90;;;;;;4160650;28;20610;-69
2021/04/04 02:35:37;;;;;;;18.42;4.20;;;7.30;99.90;;;;;;4158574;28;20486;-69
2021/04/04 02:37:38;;;;;;;12.90;3.67;;;7.30;99.90;;;;;;4161056;28;20099;-68
2021/04/04 02:39:47;;;;;;;21.00;5.15;;;7.30;99.90;;;;;;4158149;28;20051;-69
2021/04/04 02:41:48;;;;;;;18.27;4.45;;;7.20;99.90;;;;;;4158279;28;20038;-69
2021/04/04 02:43:52;;;;;;;12.02;3.97;;;7.20;99.90;;;;;;4152582;28;20034;-69
2021/04/04 02:45:54;;;;;;;13.50;4.40;;;7.20;99.90;;;;;;4159168;28;20433;-68
2021/04/04 02:48:08;;;;;;;14.73;4.15;;;7.20;99.90;;;;;;4160574;28;20030;-68
2021/04/04 02:50:11;;;;;;;17.10;4.85;;;7.20;99.90;;;;;;4158272;28;20092;-68
2021/04/04 02:52:15;;;;;;;20.10;4.45;;;7.20;99.90;;;;;;4156451;28;20034;-69
2021/04/04 02:54:21;;;;;;;14.70;3.97;;;7.10;99.90;;;;;;4156986;28;20033;-69
2021/04/04 02:56:23;;;;;;;18.55;4.32;;;7.10;99.90;;;;;;4188776;28;20036;-69
2021/04/04 02:58:26;;;;;;;17.17;4.25;;;7.10;99.90;;;;;;4157545;28;20029;-69
2021/04/04 03:00:27;;;;;;;17.05;4.13;;;7.10;99.90;;;;;;4156526;28;20072;-69
2021/04/04 03:02:28;;;;;;;17.17;4.20;;;7.10;99.90;;;;;;4158229;28;20041;-69
2021/04/04 03:04:32;;;;;;;17.50;4.28;;;7.10;99.90;;;;;;4156647;28;20152;-69
2021/04/04 03:06:33;;;;;;;18.30;4.50;;;7.10;99.90;;;;;;4155066;28;20032;-68
2021/04/04 03:08:41;;;;;;;18.35;3.95;;;7.10;99.90;;;;;;4159200;28;20030;-69
2021/04/04 03:10:49;;;;;;;15.85;4.03;;;7.10;99.90;;;;;;4157992;28;20033;-68
2021/04/04 03:12:51;;;;;;;17.98;3.75;;;7.00;99.90;;;;;;4173793;28;20116;-69
2021/04/04 03:14:56;;;;;;;13.57;3.50;;;7.00;99.90;;;;;;4158677;28;20370;-68
2021/04/04 03:16:57;;;;;;;35.97;5.15;;;7.00;99.90;;;;;;4159221;28;20599;-69
2021/04/04 03:19:02;;;;;;;20.70;4.38;;;7.00;99.90;;;;;;4158378;28;20355;-69
2021/04/04 03:21:04;;;;;;;18.05;4.13;;;7.00;99.90;;;;;;4174670;28;20094;-68
2021/04/04 03:23:06;;;;;;;10.30;3.80;;;7.00;99.90;;;;;;4157240;28;20083;-68
2021/04/04 03:25:09;;;;;;;17.10;4.35;;;7.00;99.90;;;;;;4156536;28;20133;-68
2021/04/04 03:27:10;;;;;;;19.05;4.43;;;7.00;99.90;;;;;;4156637;28;20033;-68
2021/04/04 03:29:11;;;;;;;14.32;4.07;;;7.00;99.90;;;;;;4168912;28;20396;-67
2021/04/04 03:31:16;;;;;;;20.10;4.53;;;7.00;99.90;;;;;;4156783;28;20037;-67
2021/04/04 03:33:20;;;;;;;13.20;4.38;;;7.00;99.90;;;;;;4154712;28;20034;-67
2021/04/04 03:35:21;;;;;;;12.48;3.90;;;7.00;99.90;;;;;;4173406;28;20075;-67
2021/04/04 03:37:23;;;;;;;12.25;3.60;;;7.00;99.90;;;;;;4180898;28;20823;-67
2021/04/04 03:39:25;;;;;;;17.85;4.47;;;7.00;99.90;;;;;;4158907;28;20041;-67
2021/04/04 03:41:28;;;;;;;15.98;3.38;;;7.00;99.90;;;;;;4155867;28;20037;-67
2021/04/04 03:43:32;;;;;;;10.32;3.70;;;7.10;99.90;;;;;;4158486;28;20048;-67
2021/04/04 03:45:33;;;;;;;18.95;4.40;;;7.10;99.90;;;;;;4154567;28;20124;-67
2021/04/04 03:47:35;;;;;;;27.70;4.97;;;7.10;99.90;;;;;;4159308;28;20029;-67
2021/04/04 03:49:38;;;;;;;8.47;3.40;;;7.10;99.90;;;;;;4185555;28;20541;-67
2021/04/04 03:51:39;;;;;;;18.67;4.40;;;7.10;99.90;;;;;;4159160;28;20040;-67
2021/04/04 03:53:43;;;;;;;13.48;3.50;;;7.20;99.90;;;;;;4157879;28;20068;-67
2021/04/04 03:55:47;;;;;;;15.73;3.83;;;7.20;99.90;;;;;;4158844;28;20547;-67
2021/04/04 03:57:52;;;;;;;14.65;3.67;;;7.20;99.90;;;;;;4157392;28;20053;-67
2021/04/04 03:59:54;;;;;;;10.23;3.50;;;7.30;99.90;;;;;;4156954;28;20041;-67
2021/04/04 04:01:55;;;;;;;11.57;2.93;;;7.30;99.90;;;;;;4157948;28;20037;-67
2021/04/04 04:03:58;;;;;;;11.15;3.28;;;7.30;99.90;;;;;;4180978;28;20327;-67
2021/04/04 04:05:59;;;;;;;9.52;3.00;;;7.30;99.90;;;;;;4156665;28;20481;-67
2021/04/04 04:08:01;;;;;;;12.52;4.05;;;7.30;99.90;;;;;;4159042;28;20026;-67
2021/04/04 04:10:03;;;;;;;15.20;3.37;;;7.30;99.90;;;;;;4180596;28;20025;-67
2021/04/04 04:12:05;;;;;;;10.63;3.07;;;7.40;99.90;;;;;;4185076;28;20024;-67
2021/04/04 04:14:10;;;;;;;12.20;3.30;;;7.40;99.90;;;;;;4158866;28;20153;-67
2021/04/04 04:16:14;;;;;;;7.70;2.88;;;7.40;99.90;;;;;;4158559;28;20021;-67
2021/04/04 04:18:15;;;;;;;8.65;2.75;;;7.40;99.90;;;;;;4157887;28;20064;-67
2021/04/04 04:20:16;;;;;;;12.60;3.45;;;7.40;99.90;;;;;;4159282;28;20029;-67
2021/04/04 04:22:18;;;;;;;12.70;3.20;;;7.40;99.90;;;;;;4173587;28;20141;-67
2021/04/04 04:24:19;;;;;;;11.88;3.15;;;7.40;99.90;;;;;;4157535;28;20499;-67
2021/04/04 04:26:21;;;;;;;16.95;3.90;;;7.40;99.90;;;;;;4141233;28;20163;-67
2021/04/04 04:28:23;;;;;;;11.00;3.28;;;7.50;99.90;;;;;;4189679;28;20094;-67
2021/04/04 04:30:25;;;;;;;15.07;3.97;;;7.50;99.90;;;;;;4157825;28;20036;-67
2021/04/04 04:32:29;;;;;;;14.38;3.70;;;7.40;99.90;;;;;;4158611;28;20038;-67
2021/04/04 04:34:30;;;;;;;16.50;3.25;;;7.50;99.90;;;;;;4170257;28;20055;-67
2021/04/04 04:36:32;;;;;;;19.15;3.72;;;7.50;99.90;;;;;;4155860;28;20488;-67
2021/04/04 04:38:33;;;;;;;13.10;3.43;;;7.50;99.90;;;;;;4156974;28;20129;-67
2021/04/04 04:40:34;;;;;;;10.75;3.30;;;7.40;99.90;;;;;;4184666;28;20276;-67
2021/04/04 04:42:39;;;;;;;15.98;3.72;;;7.50;99.90;;;;;;4158442;28;20025;-67
2021/04/04 04:44:44;;;;;;;15.50;4.15;;;7.50;99.90;;;;;;4156932;28;20037;-67
2021/04/04 04:46:45;;;;;;;15.50;4.03;;;7.40;99.90;;;;;;4158674;28;20068;-67
2021/04/04 04:48:46;;;;;;;15.32;3.50;;;7.50;99.90;;;;;;4167160;28;20567;-67
2021/04/04 04:50:47;;;;;;;23.55;4.00;;;7.40;99.90;;;;;;4175648;28;20029;-67
2021/04/04 04:52:48;;;;;;;8.52;2.97;;;7.40;99.90;;;;;;4158446;28;20489;-67
2021/04/04 04:54:49;;;;;;;10.90;3.28;;;7.40;99.90;;;;;;4157274;28;20120;-67
2021/04/04 04:56:50;;;;;;;12.07;3.35;;;7.40;99.90;;;;;;4158904;28;20625;-67
2021/04/04 04:58:52;;;;;;;12.68;3.97;;;7.40;99.90;;;;;;4168123;28;20036;-67
2021/04/04 05:00:56;;;;;;;17.00;3.45;;;7.40;99.90;;;;;;4157468;28;20046;-67
2021/04/04 05:02:57;;;;;;;15.27;3.95;;;7.50;99.90;;;;;;4157724;28;20358;-67
2021/04/04 05:04:59;;;;;;;7.03;2.55;;;7.40;99.90;;;;;;4150004;28;20037;-67
2021/04/04 05:07:00;;;;;;;13.88;3.78;;;7.40;99.90;;;;;;4173204;28;20447;-67
2021/04/04 05:09:02;;;;;;;12.35;3.63;;;7.40;99.90;;;;;;4159811;28;20025;-67
2021/04/04 05:11:07;;;;;;;9.88;3.00;;;7.40;99.90;;;;;;4161862;28;20491;-67
2021/04/04 05:13:08;;;;;;;10.65;3.22;;;7.40;99.90;;;;;;4155895;28;20354;-67
2021/04/04 05:15:10;;;;;;;8.30;2.67;;;7.40;99.90;;;;;;4190179;28;20035;-67
2021/04/04 05:17:11;;;;;;;12.27;3.78;;;7.40;99.90;;;;;;4161858;28;20034;-67
2021/04/04 05:19:12;;;;;;;14.48;2.78;;;7.40;99.90;;;;;;4188617;28;20047;-67
2021/04/04 05:21:18;;;;;;;14.65;2.90;;;7.40;99.90;;;;;;4164982;28;20556;-67
2021/04/04 05:23:23;;;;;;;11.18;2.83;;;7.50;99.90;;;;;;4150445;28;20176;-67
2021/04/04 05:25:25;;;;;;;9.48;2.90;;;7.50;99.90;;;;;;4176632;28;20037;-67
2021/04/04 05:27:26;;;;;;;10.60;2.92;;;7.50;99.90;;;;;;4158692;28;20481;-67
2021/04/04 05:29:27;;;;;;;14.18;3.00;;;7.50;99.90;;;;;;4159655;28;20091;-67
2021/04/04 05:31:29;;;;;;;7.93;2.63;;;7.50;99.90;;;;;;4157922;28;20048;-67
2021/04/04 05:33:30;;;;;;;12.20;2.83;;;7.50;99.90;;;;;;4175240;28;20033;-67
2021/04/04 05:35:37;;;;;;;6.45;2.38;;;7.50;99.90;;;;;;4139380;28;20034;-67
2021/04/04 05:37:41;;;;;;;11.10;2.97;;;7.50;99.90;;;;;;4156586;28;20045;-67
2021/04/04 05:39:42;;;;;;;5.93;2.10;;;7.50;99.90;;;;;;4166255;28;20030;-67
2021/04/04 05:41:48;;;;;;;8.18;2.67;;;7.50;99.90;;;;;;4161158;28;20408;-67
2021/04/04 05:43:55;;;;;;;10.18;2.72;;;7.50;99.90;;;;;;4153096;28;20060;-67
2021/04/04 05:46:19;;;;;;;10.88;2.95;;;7.50;99.90;;;;;;4160370;28;20112;-67
2021/04/04 05:48:36;;;;;;;13.65;3.20;;;7.60;99.90;;;;;;4158333;28;20481;-67
2021/04/04 05:50:45;;;;;;;11.95;2.70;;;7.60;99.90;;;;;;4160465;28;20065;-67
2021/04/04 05:52:55;;;;;;;16.40;2.65;;;7.60;99.90;;;;;;4159295;28;20036;-67
2021/04/04 05:55:23;;;;;;;10.70;2.60;;;7.60;99.90;;;;;;4156824;28;20033;-67
2021/04/04 05:57:33;;;;;;;9.77;2.63;;;7.60;99.90;;;;;;4160162;28;20039;-67
2021/04/04 05:59:42;;;;;;;12.27;3.00;;;7.60;99.90;;;;;;4155012;28;20026;-67
2021/04/04 06:02:01;;;;;;;10.73;2.55;;;7.60;99.90;;;;;;4154871;28;20052;-67
2021/04/04 06:04:02;;;;;;;9.15;2.25;;;7.60;99.90;;;;;;4159677;28;20120;-67
2021/04/04 06:06:27;;;;;;;11.50;2.50;;;7.60;99.90;;;;;;4159262;28;20075;-68
2021/04/04 06:08:55;;;;;;;8.50;2.58;;;7.60;99.90;;;;;;4159102;28;20522;-68
2021/04/04 06:11:23;;;;;;;7.40;2.60;;;7.60;99.90;;;;;;4158796;28;20033;-67
2021/04/04 06:14:02;;;;;;;11.98;2.72;;;7.70;99.90;;;;;;4159480;28;20060;-67
2021/04/04 06:16:18;;;;;;;8.88;2.25;;;7.70;99.90;;;;;;4109145;28;20066;-68
2021/04/04 06:18:35;;;;;;;12.38;2.25;;;7.70;99.90;;;;;;4102601;28;20042;-68
2021/04/04 06:20:51;;;;;;;7.63;2.67;;;7.70;99.90;;;;;;4117335;28;20092;-68
2021/04/04 06:23:12;;;;;;;10.85;2.85;;;7.70;99.90;;;;;;4159053;28;20033;-67
2021/04/04 06:25:44;;;;;;;6.20;2.30;;;7.80;99.90;;;;;;4177031;28;20029;-67
2021/04/04 06:27:54;;;;;;;4.90;2.05;;;7.80;99.90;;;;;;4151024;28;20079;-67
2021/04/04 06:30:45;;;;;;;11.80;3.22;;;7.80;99.90;;;;;;4161354;28;20030;-68
2021/04/04 06:33:05;;;;;;;9.60;2.55;;;7.80;99.90;;;;;;4167483;28;20052;-68
2021/04/04 06:35:32;;;;;;;10.10;2.45;;;7.90;99.90;;;;;;4157670;28;20030;-68
2021/04/04 06:37:51;;;;;;;4.63;2.13;;;7.90;99.90;;;;;;4152850;28;20045;-68
2021/04/04 06:40:04;;;;;;;7.75;2.65;;;7.90;99.90;;;;;;4155760;28;20046;-69
2021/04/04 06:42:19;;;;;;;9.02;2.70;;;7.90;99.90;;;;;;4177337;28;20492;-69
2021/04/04 06:44:38;;;;;;;11.07;2.67;;;7.90;99.90;;;;;;4158743;28;20040;-68
2021/04/04 06:47:02;;;;;;;6.97;2.50;;;7.90;99.90;;;;;;4180874;28;20025;-69
2021/04/04 06:49:12;;;;;;;10.52;3.08;;;7.90;99.90;;;;;;4154895;28;20046;-68
2021/04/04 06:51:31;;;;;;;10.10;2.78;;;7.90;99.90;;;;;;4159207;28;20057;-68
2021/04/04 06:53:39;;;;;;;13.30;2.92;;;7.90;99.90;;;;;;4158918;28;20033;-69
2021/04/04 06:56:12;;;;;;;12.57;3.63;;;8.00;99.90;;;;;;4159271;28;20083;-66
2021/04/04 06:58:16;;;;;;;12.60;2.83;;;7.90;99.90;;;;;;4166864;28;20406;-67
2021/04/04 07:00:31;;;;;;;14.88;3.35;;;7.90;99.90;;;;;;4162573;28;20068;-67
2021/04/04 07:02:52;;;;;;;10.13;3.15;;;7.90;99.90;;;;;;4160211;28;20035;-67
2021/04/04 07:05:14;;;;;;;12.77;2.90;;;7.90;99.90;;;;;;4161051;28;20557;-67
2021/04/04 07:07:51;;;;;;;13.70;3.33;;;7.90;99.90;;;;;;4158660;28;20071;-67
2021/04/04 07:10:10;;;;;;;12.98;3.15;;;7.90;99.90;;;;;;4160008;28;20636;-66
2021/04/04 07:12:36;;;;;;;17.23;3.25;;;7.90;99.90;;;;;;4158587;28;20036;-66
2021/04/04 07:15:02;;;;;;;13.77;3.00;;;7.90;99.90;;;;;;4156684;28;20044;-66
2021/04/04 07:17:30;;;;;;;10.70;3.05;;;7.90;99.90;;;;;;4153953;28;20041;-68
2021/04/04 07:20:04;;;;;;;19.95;3.40;;;7.90;99.90;;;;;;4159515;28;20099;-66
2021/04/04 07:22:36;;;;;;;15.30;3.67;;;8.00;99.90;;;;;;4159328;28;20094;-66
2021/04/04 07:24:50;;;;;;;10.23;2.78;;;8.00;99.90;;;;;;4155868;28;20039;-66
2021/04/04 07:27:13;;;;;;;12.13;3.33;;;8.00;99.90;;;;;;4159604;28;20097;-66
2021/04/04 07:29:38;;;;;;;10.55;2.88;;;8.00;99.90;;;;;;4158963;28;20045;-66
2021/04/04 07:31:49;;;;;;;12.57;3.00;;;8.00;99.90;;;;;;4158668;28;20072;-66
2021/04/04 07:33:57;;;;;;;10.80;2.83;;;8.00;99.90;;;;;;4190326;28;20380;-65
2021/04/04 07:36:22;;;;;;;15.48;3.60;;;8.10;99.90;;;;;;4160463;28;20022;-66
2021/04/04 07:38:31;;;;;;;10.35;2.95;;;8.10;99.90;;;;;;4157700;28;20032;-66
2021/04/04 07:40:50;;;;;;;14.27;3.40;;;8.00;99.90;;;;;;4158762;28;20045;-66
2021/04/04 07:43:02;;;;;;;10.13;3.30;;;8.00;99.90;;;;;;4158497;28;20743;-66
2021/04/04 07:45:12;;;;;;;10.48;3.17;;;8.00;99.90;;;;;;4158402;28;20045;-66
2021/04/04 07:47:24;;;;;;;10.02;3.20;;;8.00;99.90;;;;;;4159342;28;20491;-66
2021/04/04 07:49:38;;;;;;;15.30;3.28;;;8.00;99.90;;;;;;4158275;28;20084;-66
2021/04/04 07:51:40;;;;;;;11.10;3.40;;;8.00;99.90;;;;;;4158123;28;20033;-66
2021/04/04 07:54:04;;;;;;;12.00;3.72;;;8.00;99.90;;;;;;4158432;28;20057;-66
2021/04/04 07:56:11;;;;;;;10.73;2.72;;;8.10;99.90;;;;;;4186993;28;20643;-66
2021/04/04 07:58:25;;;;;;;7.63;2.85;;;8.10;99.90;;;;;;4156765;28;20541;-67
2021/04/04 08:00:27;;;;;;;7.97;2.70;;;8.10;99.90;;;;;;4156595;28;20041;-67
2021/04/04 08:02:33;;;;;;;10.70;3.00;;;8.10;99.90;;;;;;4158043;28;20037;-67
2021/04/04 08:04:55;;;;;;;11.43;2.80;;;8.10;99.90;;;;;;4171800;28;20025;-67
2021/04/04 08:07:18;;;;;;;8.82;2.50;;;8.10;99.90;;;;;;4158716;28;20033;-67
2021/04/04 08:09:35;;;;;;;7.60;2.83;;;8.10;99.90;;;;;;4156310;28;20032;-67
2021/04/04 08:11:53;;;;;;;9.40;2.25;;;8.10;99.90;;;;;;4172765;28;20040;-67
2021/04/04 08:14:12;;;;;;;11.30;2.78;;;8.10;99.90;;;;;;4188891;28;20506;-67
2021/04/04 08:16:55;;;;;;;9.20;2.65;;;8.10;99.90;;;;;;4166407;28;20025;-67
2021/04/04 08:18:56;;;;;;;10.68;2.50;;;8.10;99.90;;;;;;4155944;28;20034;-67
2021/04/04 08:21:04;;;;;;;8.05;2.45;;;8.10;99.90;;;;;;4172555;28;20095;-67
2021/04/04 08:23:06;;;;;;;7.50;2.40;;;8.10;99.90;;;;;;4156589;28;20513;-67
2021/04/04 08:25:49;;;;;;;9.82;2.38;;;8.10;99.90;;;;;;4155511;28;20109;-67
2021/04/04 08:28:16;;;;;;;8.13;2.40;;;8.10;99.90;;;;;;4151520;28;20540;-67
2021/04/04 08:30:23;;;;;;;4.40;2.13;;;8.10;99.90;;;;;;4154084;28;20033;-67
2021/04/04 08:32:44;;;;;;;5.40;2.17;;;8.10;99.90;;;;;;4156960;28;20032;-67
2021/04/04 08:34:52;;;;;;;3.50;1.60;;;8.10;99.90;;;;;;4152714;28;20041;-67
2021/04/04 08:37:06;;;;;;;6.28;2.67;;;8.10;99.90;;;;;;4156163;28;20084;-67
2021/04/04 08:39:06;;;;;;;;;;;8.10;99.90;;;;;;4155672;28;20386;-67
2021/04/04 08:41:09;;;;;;;4.68;1.50;;;8.10;99.90;;;;;;4157332;28;19913;-67
2021/04/04 08:43:11;;;;;;;13.40;2.30;;;8.20;99.90;;;;;;4155571;28;20030;-67
2021/04/04 08:45:23;;;;;;;6.75;2.13;;;8.20;99.90;;;;;;4165021;28;20073;-67
2021/04/04 08:47:30;;;;;;;6.95;1.90;;;8.10;99.90;;;;;;4160717;28;20040;-67
2021/04/04 08:49:31;;;;;;;8.10;2.15;;;8.10;99.90;;;;;;4158015;28;20042;-67
2021/04/04 08:51:38;;;;;;;6.43;1.92;;;8.10;99.90;;;;;;4158459;28;20053;-67
2021/04/04 08:53:44;;;;;;;6.25;2.13;;;8.10;99.90;;;;;;4156596;28;20065;-67
2021/04/04 08:55:47;;;;;;;8.05;2.45;;;8.10;99.90;;;;;;4155985;28;20087;-67
2021/04/04 08:57:50;;;;;;;9.30;2.33;;;8.10;99.90;;;;;;4154432;28;20128;-67
2021/04/04 08:59:54;;;;;;;8.10;2.10;;;8.10;99.90;;;;;;4156986;28;20038;-67
2021/04/04 09:02:01;;;;;;;7.80;2.50;;;8.10;99.90;;;;;;4156713;28;20047;-67
2021/04/04 09:04:05;;;;;;;8.93;2.50;;;8.10;99.90;;;;;;4156127;28;21492;-67
2021/04/04 09:06:08;;;;;;;6.68;1.80;;;8.10;99.90;;;;;;4155399;28;20033;-67
2021/04/04 09:08:12;;;;;;;7.95;2.50;;;8.10;99.90;;;;;;4157619;28;20124;-67
2021/04/04 09:10:15;;;;;;;7.65;2.60;;;8.10;99.90;;;;;;4171826;28;20053;-67
2021/04/04 09:12:17;;;;;;;8.68;2.50;;;8.10;99.90;;;;;;4158143;28;20030;-67
2021/04/04 09:14:20;;;;;;;10.25;2.63;;;8.00;99.90;;;;;;4159668;28;20045;-67
2021/04/04 09:16:22;;;;;;;;;;;8.00;99.90;;;;;;4164785;28;20064;-67
2021/04/04 09:18:25;;;;;;;9.00;2.63;;;8.00;99.90;;;;;;4157800;28;19925;-67
2021/04/04 09:20:34;;;;;;;8.68;2.88;;;8.10;99.90;;;;;;4157839;28;20041;-67
2021/04/04 09:22:37;;;;;;;8.98;2.70;;;8.00;99.90;;;;;;4187585;28;20046;-67
2021/04/04 09:24:59;;;;;;;8.65;2.20;;;8.00;99.90;;;;;;4158438;28;20140;-67
2021/04/04 09:27:01;;;;;;;8.38;2.63;;;8.10;99.90;;;;;;4155316;28;20034;-67
2021/04/04 09:29:03;;;;;;;5.90;2.58;;;8.10;99.90;;;;;;4156473;28;20039;-67
2021/04/04 09:31:16;;;;;;;6.73;2.03;;;8.10;99.90;;;;;;4157429;28;20063;-67
2021/04/04 09:33:27;;;;;;;4.97;2.28;;;8.20;99.90;;;;;;4154169;28;20273;-67
2021/04/04 09:35:28;;;;;;;5.65;2.17;;;8.20;99.90;;;;;;4169549;28;20480;-67
2021/04/04 09:37:30;;;;;;;8.52;2.30;;;8.20;99.90;;;;;;4157561;28;20061;-67
2021/04/04 09:39:31;;;;;;;9.23;2.23;;;8.30;99.90;;;;;;4157564;28;20040;-66
2021/04/04 09:41:32;;;;;;;5.75;2.17;;;8.30;99.90;;;;;;4158005;28;20029;-67
2021/04/04 09:43:45;;;;;;;8.10;2.28;;;8.30;99.90;;;;;;4157255;28;20494;-67
2021/04/04 09:45:45;;;;;;;7.43;2.58;;;8.30;99.90;;;;;;4151353;28;20068;-67
2021/04/04 09:47:47;;;;;;;11.10;3.10;;;8.20;99.90;;;;;;4158185;28;20037;-67
2021/04/04 09:49:48;;;;;;;7.72;2.72;;;8.30;99.90;;;;;;4156728;28;20041;-67
2021/04/04 09:51:49;;;;;;;13.07;3.00;;;8.30;99.90;;;;;;4171732;28;20048;-67
2021/04/04 09:53:56;;;;;;;8.68;2.97;;;8.30;99.90;;;;;;4157034;28;20634;-67
2021/04/04 09:56:13;;;;;;;11.50;3.50;;;8.30;99.90;;;;;;4156699;28;20121;-67
2021/04/04 09:58:29;;;;;;;7.80;2.30;;;8.30;99.90;;;;;;4159821;28;20694;-67
2021/04/04 10:00:35;;;;;;;7.07;2.40;;;8.30;99.90;;;;;;4158474;28;20488;-67
2021/04/04 10:02:36;;;;;;;8.85;2.70;;;8.30;99.90;;;;;;4164886;28;20586;-67
2021/04/04 10:04:43;;;;;;;7.32;2.20;;;8.30;99.90;;;;;;4157711;28;20045;-67
2021/04/04 10:06:58;;;;;;;10.88;2.60;;;8.30;99.90;;;;;;4160642;28;20060;-67
2021/04/04 10:09:05;;;;;;;9.02;2.40;;;8.40;99.90;;;;;;4153444;28;20131;-67
2021/04/04 10:11:14;;;;;;;6.30;2.30;;;8.40;99.90;;;;;;4163173;28;20081;-67
2021/04/04 10:13:16;;;;;;;6.70;1.90;;;8.40;99.90;;;;;;4174926;28;20029;-67
2021/04/04 10:15:17;;;;;;;5.57;1.73;;;8.40;99.90;;;;;;4161011;28;20051;-67
2021/04/04 10:17:18;;;;;;;7.85;2.08;;;8.50;99.90;;;;;;4176104;28;20445;-68
2021/04/04 10:19:20;;;;;;;9.52;2.30;;;8.50;99.90;;;;;;4160074;28;20627;-67
2021/04/04 10:21:21;;;;;;;6.53;2.08;;;8.50;99.90;;;;;;4159966;28;20109;-67
2021/04/04 10:23:29;;;;;;;6.30;2.17;;;8.40;99.90;;;;;;4159033;28;20033;-67
2021/04/04 10:25:30;;;;;;;8.20;2.38;;;8.40;99.90;;;;;;4160222;28;20544;-67
2021/04/04 10:27:30;;;;;;;6.13;1.80;;;8.40;99.90;;;;;;4159970;28;20048;-67
2021/04/04 10:29:31;;;;;;;10.23;2.20;;;8.50;99.90;;;;;;4159656;28;20481;-67
2021/04/04 10:31:46;;;;;;;7.35;2.30;;;8.50;99.90;;;;;;4161293;28;20486;-67
2021/04/04 10:34:13;;;;;;;8.52;2.30;;;8.50;99.90;;;;;;4163663;28;20667;-67
2021/04/04 10:36:16;;;;;;;5.65;2.00;;;8.50;99.90;;;;;;4157669;28;20033;-67
2021/04/04 10:38:20;;;;;;;5.55;1.92;;;8.50;99.90;;;;;;4159207;28;20041;-67
2021/04/04 10:40:21;;;;;;;11.65;2.22;;;8.50;99.90;;;;;;4171745;28;20477;-67
2021/04/04 10:42:22;;;;;;;9.63;2.08;;;8.50;99.90;;;;;;4158559;28;20120;-67
2021/04/04 10:44:24;;;;;;;6.55;2.15;;;8.60;99.90;;;;;;4158776;28;21142;-67
2021/04/04 10:46:35;;;;;;;5.70;1.83;;;8.60;99.90;;;;;;4160345;28;20034;-67
2021/04/04 10:48:42;;;;;;;6.43;1.90;;;8.60;99.90;;;;;;4157801;28;20252;-67
2021/04/04 10:50:42;;;;;;;4.68;1.80;;;8.70;99.90;;;;;;4191119;28;20423;-67
2021/04/04 10:52:45;;;;;;;6.63;2.08;;;8.70;99.90;;;;;;4160105;28;20045;-67
2021/04/04 10:54:47;;;;;;;7.72;2.30;;;8.70;99.90;;;;;;4159062;28;20038;-67
2021/04/04 10:56:49;;;;;;;4.50;1.88;;;8.80;99.90;;;;;;4159765;28;20037;-67
2021/04/04 10:58:51;;;;;;;8.70;2.33;;;8.80;99.90;;;;;;4159089;28;20017;-67
2021/04/04 11:00:53;;;;;;;6.03;2.60;;;8.90;99.90;;;;;;4158773;28;20075;-67
2021/04/04 11:02:56;;;;;;;;;;;8.90;99.90;;;;;;4159628;28;20060;-67
2021/04/04 11:04:58;;;;;;;7.25;1.65;;;8.90;99.90;;;;;;4156545;28;21460;-67